Time;durP1;ratioP1;P1;durP2;ratioP2;P2;SDS_P1;SDS_P2;PMS_P1;PMS_P2;Temp;Humidity;BMP_temperature;BMP_pressure;BME280_temperature;BME280_humidity;BME280_pressure;Samples;Min_cycle;Max_cycle;Signal;HPM_P1;HPM_P2
2022/04/13 00:01:02;;;;;;;5.60;2.40;;;14.20;99.90;;;;;;1941165;72;22527;-80
2022/04/13 00:04:12;;;;;;;4.47;2.47;;;14.20;99.90;;;;;;1925752;73;21117;-81
2022/04/13 00:07:22;;;;;;;6.05;3.17;;;14.10;99.90;;;;;;1906480;75;21051;-80
2022/04/13 00:12:52;;;;;;;7.42;2.83;;;14.10;99.90;;;;;;1949527;72;22683;-80
2022/04/13 00:16:02;;;;;;;5.83;1.80;;;14.00;99.90;;;;;;1895020;75;21071;-80
2022/04/13 00:19:12;;;;;;;5.30;2.33;;;13.90;99.90;;;;;;1894929;75;21175;-80
2022/04/13 00:22:04;;;;;;;7.03;2.40;;;13.90;99.90;;;;;;1894872;75;21076;-82
2022/04/13 00:24:55;;;;;;;5.30;2.20;;;14.00;99.90;;;;;;1890959;75;21131;-82
2022/04/13 00:27:47;;;;;;;5.03;2.25;;;14.00;99.90;;;;;;1886479;75;21540;-81
2022/04/13 00:30:39;;;;;;;4.50;2.15;;;14.00;99.90;;;;;;1904170;75;21139;-81
2022/04/13 00:33:32;;;;;;;5.65;2.10;;;14.00;99.90;;;;;;1883504;75;21063;-80
2022/04/13 00:36:24;;;;;;;4.20;1.90;;;14.00;99.90;;;;;;1892475;75;21113;-81
2022/04/13 00:39:15;;;;;;;7.03;2.30;;;13.90;99.90;;;;;;1876036;75;21649;-81
2022/04/13 00:42:09;;;;;;;9.45;2.02;;;13.90;99.90;;;;;;1883121;75;21121;-80
2022/04/13 00:45:01;;;;;;;7.22;2.62;;;13.90;99.90;;;;;;1893061;75;21121;-81
2022/04/13 00:47:53;;;;;;;10.20;2.40;;;14.00;99.90;;;;;;1883510;75;21176;-81
2022/04/13 00:50:44;;;;;;;4.95;2.35;;;14.00;99.90;;;;;;1897471;75;21107;-81
2022/04/13 00:53:38;;;;;;;6.60;2.27;;;14.00;99.90;;;;;;1884342;75;21137;-81
2022/04/13 00:56:30;;;;;;;12.90;2.67;;;13.90;99.90;;;;;;1883939;75;21095;-81
2022/04/13 00:59:24;;;;;;;7.00;1.87;;;13.80;99.90;;;;;;1903299;75;21068;-81
2022/04/13 01:02:17;;;;;;;6.45;2.15;;;13.80;99.90;;;;;;1873282;76;21172;-80
2022/04/13 01:07:51;;;;;;;6.90;2.00;;;13.70;99.90;;;;;;1933916;72;22245;-80
2022/04/13 01:11:01;;;;;;;7.28;2.65;;;13.80;99.90;;;;;;1894868;75;21057;-80
2022/04/13 01:14:12;;;;;;;6.12;2.00;;;13.70;99.90;;;;;;1878356;75;21129;-80
2022/04/13 01:17:04;;;;;;;4.20;1.85;;;13.70;99.90;;;;;;1883713;75;21147;-80
2022/04/13 01:19:57;;;;;;;9.55;2.40;;;13.70;99.90;;;;;;1873144;76;21044;-80
2022/04/13 01:22:49;;;;;;;9.23;2.45;;;13.60;99.90;;;;;;1884964;75;21555;-80
2022/04/13 01:28:21;;;;;;;5.30;1.80;;;13.70;99.90;;;;;;1953619;72;22163;-80
2022/04/13 01:31:33;;;;;;;4.70;1.60;;;13.70;99.90;;;;;;1938332;73;21087;-82
2022/04/13 01:34:49;;;;;;;8.83;2.00;;;13.70;99.90;;;;;;1937187;73;21109;-81
2022/04/13 01:37:41;;;;;;;6.75;2.00;;;13.70;99.90;;;;;;1917918;75;21051;-81
2022/04/13 01:40:33;;;;;;;7.15;2.00;;;13.60;99.90;;;;;;1921284;73;21134;-81
2022/04/13 01:43:24;;;;;;;7.78;2.60;;;13.60;99.90;;;;;;1940654;73;21162;-81
2022/04/13 01:46:16;;;;;;;9.30;2.55;;;13.60;99.90;;;;;;1917724;75;21047;-81
2022/04/13 01:51:47;;;;;;;7.87;2.15;;;13.40;99.90;;;;;;1945386;72;22143;-80
2022/04/13 01:54:57;;;;;;;6.42;2.12;;;13.40;99.90;;;;;;1914016;75;21155;-82
2022/04/13 01:58:08;;;;;;;7.60;2.10;;;13.40;99.90;;;;;;1906892;75;21129;-80
2022/04/13 02:01:00;;;;;;;11.28;2.45;;;13.30;99.90;;;;;;1907025;75;21063;-81
2022/04/13 02:03:51;;;;;;;7.50;2.72;;;13.30;99.90;;;;;;1896512;75;21059;-81
2022/04/13 02:06:43;;;;;;;10.48;2.72;;;13.30;99.90;;;;;;1897186;75;21106;-81
2022/04/13 02:09:35;;;;;;;11.03;2.22;;;13.30;99.90;;;;;;1903943;75;21132;-80
2022/04/13 02:12:27;;;;;;;9.68;2.20;;;13.30;99.90;;;;;;1915429;75;21118;-81
2022/04/13 02:17:58;;;;;;;6.67;1.90;;;13.40;99.90;;;;;;1947068;72;22705;-80
2022/04/13 02:21:08;;;;;;;9.25;2.27;;;13.30;99.90;;;;;;1905343;75;21537;-82
2022/04/13 02:24:18;;;;;;;10.25;2.10;;;13.20;99.90;;;;;;1906433;75;21066;-81
2022/04/13 02:27:10;;;;;;;8.40;2.22;;;13.10;99.90;;;;;;1890119;75;21615;-81
2022/04/13 02:30:02;;;;;;;10.38;1.70;;;13.00;99.90;;;;;;1903063;75;21667;-81
2022/04/13 02:32:53;;;;;;;10.28;2.42;;;13.00;99.90;;;;;;1900451;75;21087;-81
2022/04/13 02:35:45;;;;;;;8.28;2.12;;;13.00;99.90;;;;;;1902845;75;21097;-80
2022/04/13 02:38:37;;;;;;;7.30;1.87;;;12.90;99.90;;;;;;1906270;75;21144;-81
2022/04/13 02:41:30;;;;;;;7.50;1.75;;;12.80;99.90;;;;;;1906597;75;21164;-81
2022/04/13 02:44:21;;;;;;;14.15;2.77;;;12.80;99.90;;;;;;1904164;75;21160;-81
2022/04/13 02:47:13;;;;;;;10.32;2.72;;;12.80;99.90;;;;;;1891738;75;21131;-81
2022/04/13 02:50:06;;;;;;;12.00;2.40;;;12.80;99.90;;;;;;1906861;75;21059;-80
2022/04/13 02:52:57;;;;;;;8.35;2.17;;;12.80;99.90;;;;;;1907197;75;21055;-80
2022/04/13 02:58:35;;;;;;;9.00;2.27;;;12.80;99.90;;;;;;1960961;72;22182;-80
2022/04/13 03:01:46;;;;;;;10.78;2.65;;;12.70;99.90;;;;;;1931900;73;21051;-81
2022/04/13 03:04:58;;;;;;;9.25;1.80;;;12.80;99.90;;;;;;1921440;73;21034;-81
2022/04/13 03:07:49;;;;;;;7.85;2.15;;;12.90;99.90;;;;;;1939618;73;21082;-81
2022/04/13 03:10:43;;;;;;;17.15;2.60;;;12.90;99.90;;;;;;1940094;73;21055;-80
2022/04/13 03:13:35;;;;;;;9.40;2.08;;;12.70;99.90;;;;;;1936854;73;21518;-81
2022/04/13 03:16:27;;;;;;;9.80;2.50;;;12.70;99.90;;;;;;1916792;75;21506;-81
2022/04/13 03:19:19;;;;;;;9.83;2.10;;;12.70;99.90;;;;;;1949731;73;21104;-81
2022/04/13 03:22:11;;;;;;;11.90;2.20;;;12.70;99.90;;;;;;1913899;75;21063;-80
2022/04/13 03:25:06;;;;;;;9.40;2.42;;;12.70;99.90;;;;;;1928024;73;21135;-83
2022/04/13 03:27:58;;;;;;;11.85;2.35;;;12.70;99.90;;;;;;1916740;75;21060;-83
2022/04/13 03:36:08;;;;;;;10.98;2.08;;;12.60;99.90;;;;;;1958482;72;22195;-80
2022/04/13 03:39:19;;;;;;;12.23;2.10;;;12.70;99.90;;;;;;1917727;74;21677;-81
2022/04/13 03:42:31;;;;;;;10.45;1.95;;;12.60;99.90;;;;;;1917671;75;21098;-81
2022/04/13 03:45:23;;;;;;;9.45;2.67;;;12.60;99.90;;;;;;1940409;73;21055;-82
2022/04/13 03:48:15;;;;;;;12.78;2.08;;;12.70;99.90;;;;;;1917759;75;21097;-80
2022/04/13 03:51:07;;;;;;;12.43;2.58;;;12.70;99.90;;;;;;1925502;73;21470;-80
2022/04/13 03:53:58;;;;;;;13.48;2.17;;;12.60;99.90;;;;;;1926723;73;21154;-80
2022/04/13 03:56:50;;;;;;;13.20;2.12;;;12.60;99.90;;;;;;1939983;73;21131;-80
2022/04/13 03:59:42;;;;;;;10.58;2.45;;;12.50;99.90;;;;;;1923225;73;21124;-82
2022/04/13 04:02:35;;;;;;;12.33;3.17;;;12.60;99.90;;;;;;1928240;73;21128;-81
2022/04/13 04:05:26;;;;;;;11.18;2.58;;;12.50;99.90;;;;;;1928552;74;21055;-80
2022/04/13 04:08:18;;;;;;;11.22;2.50;;;12.50;99.90;;;;;;1917590;75;21055;-81
2022/04/13 04:11:10;;;;;;;10.32;2.33;;;12.50;99.90;;;;;;1917537;75;21262;-81
2022/04/13 04:16:47;;;;;;;13.45;2.40;;;12.50;99.90;;;;;;1940009;72;22086;-79
2022/04/13 04:22:37;;;;;;;13.30;2.62;;;12.50;99.90;;;;;;1935992;72;22262;-79
2022/04/13 04:31:07;;;;;;;12.82;2.70;;;12.50;99.90;;;;;;1934777;72;22229;-79
2022/04/13 04:34:19;;;;;;;10.35;2.45;;;12.60;99.90;;;;;;1931944;73;21086;-81
2022/04/13 04:40:10;;;;;;;12.40;2.30;;;12.40;99.90;;;;;;1938749;72;22561;-79
2022/04/13 04:43:20;;;;;;;13.78;2.60;;;12.40;99.90;;;;;;1896633;74;21047;-80
2022/04/13 04:46:30;;;;;;;13.18;2.52;;;12.30;99.90;;;;;;1888775;75;21122;-81
2022/04/13 04:49:22;;;;;;;9.85;2.12;;;12.40;99.90;;;;;;1905011;75;21107;-80
2022/04/13 04:52:14;;;;;;;8.73;2.02;;;12.40;99.90;;;;;;1885855;75;21041;-80
2022/04/13 04:55:07;;;;;;;12.80;2.80;;;12.40;99.90;;;;;;1884485;76;21539;-80
2022/04/13 05:00:43;;;;;;;11.40;2.72;;;12.30;99.90;;;;;;1936609;72;22566;-79
2022/04/13 05:14:20;;;;;;;7.50;2.80;;;12.30;99.90;;;;;;1922855;72;22192;-83
2022/04/13 05:17:30;;;;;;;10.15;2.72;;;12.90;99.90;;;;;;1907873;73;21086;-86
2022/04/13 05:20:40;;;;;;;14.03;3.35;;;12.70;99.90;;;;;;1909940;73;21061;-84
2022/04/13 05:23:32;;;;;;;19.32;2.98;;;12.70;99.90;;;;;;1916448;73;21143;-83
2022/04/13 05:26:24;;;;;;;12.55;3.02;;;12.50;99.90;;;;;;1894817;75;21062;-83
2022/04/13 05:29:15;;;;;;;9.85;3.17;;;12.40;99.90;;;;;;1915641;75;21057;-84
2022/04/13 05:34:50;;;;;;;12.73;2.55;;;12.40;99.90;;;;;;1951000;72;22537;-85
2022/04/13 05:38:02;;;;;;;15.55;3.47;;;12.40;99.90;;;;;;1933114;73;21196;-84
2022/04/13 05:41:15;;;;;;;10.28;2.42;;;12.40;99.90;;;;;;1928783;73;21063;-84
2022/04/13 05:57:31;;;;;;;9.28;3.00;;;12.40;99.90;;;;;;1946994;72;22197;-77
2022/04/13 06:00:41;;;;;;;11.18;3.05;;;12.40;99.90;;;;;;1898614;74;21462;-76
2022/04/13 06:03:51;;;;;;;16.20;3.10;;;12.30;99.90;;;;;;1909871;75;21148;-75
2022/04/13 06:06:43;;;;;;;9.15;2.87;;;12.30;99.90;;;;;;1903184;75;21075;-75
2022/04/13 06:09:35;;;;;;;12.82;2.90;;;12.30;99.90;;;;;;1908822;75;21095;-75
2022/04/13 06:15:10;;;;;;;11.85;2.83;;;12.30;99.90;;;;;;1953955;72;22341;-77
2022/04/13 06:20:59;;;;;;;10.03;2.00;;;12.40;99.90;;;;;;1955144;72;22655;-77
2022/04/13 06:26:48;;;;;;;12.13;3.27;;;12.40;99.90;;;;;;1957097;72;22225;-75
2022/04/13 06:29:58;;;;;;;10.23;2.72;;;12.50;99.90;;;;;;1884400;75;21081;-76
2022/04/13 06:33:08;;;;;;;12.47;2.72;;;12.50;99.90;;;;;;1891723;75;21112;-76
2022/04/13 06:36:00;;;;;;;15.72;3.40;;;12.60;99.90;;;;;;1878797;76;21589;-76
2022/04/13 06:38:51;;;;;;;9.75;2.50;;;12.60;99.90;;;;;;1861486;76;21221;-76
2022/04/13 06:41:43;;;;;;;10.30;2.55;;;12.70;99.90;;;;;;1905765;75;21163;-76
2022/04/13 06:44:34;;;;;;;12.65;2.85;;;12.80;99.90;;;;;;1886156;75;21059;-76
2022/04/13 06:50:06;;;;;;;7.90;2.62;;;13.10;99.90;;;;;;1957464;72;22245;-75
2022/04/13 06:55:55;;;;;;;13.08;2.83;;;13.40;99.90;;;;;;1949042;72;22113;-77
2022/04/13 06:59:05;;;;;;;15.28;3.20;;;13.50;99.90;;;;;;1917485;75;21083;-76
2022/04/13 07:04:54;;;;;;;11.60;2.40;;;13.40;99.90;;;;;;1950560;72;22211;-76
2022/04/13 07:08:05;;;;;;;9.85;2.85;;;13.50;99.90;;;;;;1909479;75;21144;-77
2022/04/13 07:11:16;;;;;;;11.25;2.90;;;13.50;99.90;;;;;;1904331;75;21074;-75
2022/04/13 07:14:08;;;;;;;11.95;2.77;;;13.60;99.90;;;;;;1912717;75;21062;-75
2022/04/13 07:19:45;;;;;;;11.08;3.30;;;14.00;99.90;;;;;;1925133;72;28111;-75
2022/04/13 07:22:56;;;;;;;9.80;2.42;;;14.40;99.90;;;;;;1917460;75;21480;-76
2022/04/13 07:26:07;;;;;;;9.10;2.70;;;14.40;99.90;;;;;;1915645;75;21126;-75
2022/04/13 07:28:58;;;;;;;9.68;2.67;;;14.40;99.90;;;;;;1918079;74;21200;-75
2022/04/13 07:31:50;;;;;;;12.47;2.60;;;14.40;99.90;;;;;;1905224;75;21156;-76
2022/04/13 07:34:42;;;;;;;16.20;2.92;;;14.40;99.90;;;;;;1903022;74;21053;-76
2022/04/13 07:40:17;;;;;;;14.85;3.37;;;14.50;99.90;;;;;;1951371;72;22582;-75
2022/04/13 07:43:28;;;;;;;10.48;2.62;;;14.50;99.90;;;;;;1905852;75;21116;-76
2022/04/13 07:46:39;;;;;;;10.30;2.92;;;14.50;99.90;;;;;;1906316;75;21039;-76
2022/04/13 07:52:10;;;;;;;11.38;2.60;;;14.40;99.90;;;;;;1938982;72;22241;-75
2022/04/13 07:55:20;;;;;;;13.72;2.90;;;14.60;99.90;;;;;;1908274;75;21142;-75
2022/04/13 08:01:08;;;;;;;14.20;3.17;;;14.80;99.90;;;;;;1957820;72;22213;-75
2022/04/13 08:04:20;;;;;;;12.15;2.45;;;14.90;99.90;;;;;;1916109;75;21051;-77
2022/04/13 08:07:32;;;;;;;17.55;2.95;;;14.90;99.90;;;;;;1917296;75;21062;-77
2022/04/13 08:10:27;;;;;;;11.75;2.42;;;14.90;99.90;;;;;;1901183;75;21142;-77
2022/04/13 08:13:18;;;;;;;13.20;2.75;;;15.00;99.90;;;;;;1890374;75;21133;-76
2022/04/13 08:16:12;;;;;;;13.48;2.95;;;15.20;99.90;;;;;;1906343;75;21075;-75
2022/04/13 08:19:05;;;;;;;12.23;2.98;;;15.50;99.90;;;;;;1908643;75;21122;-75
2022/04/13 08:24:37;;;;;;;15.13;2.92;;;15.90;99.90;;;;;;1942275;72;22153;-75
2022/04/13 08:27:47;;;;;;;18.00;4.33;;;16.00;99.90;;;;;;1895518;75;21617;-75
2022/04/13 08:30:58;;;;;;;13.62;5.75;;;16.20;99.90;;;;;;1895302;75;21125;-75
2022/04/13 08:33:50;;;;;;;11.20;3.22;;;16.30;99.90;;;;;;1895690;75;21076;-75
2022/04/13 08:36:42;;;;;;;12.03;2.95;;;16.40;99.90;;;;;;1896732;75;21079;-75
2022/04/13 08:39:34;;;;;;;10.48;2.85;;;16.60;99.90;;;;;;1909957;75;21179;-75
2022/04/13 08:45:21;;;;;;;10.72;2.87;;;16.90;99.90;;;;;;1960529;72;22201;-75
2022/04/13 08:48:46;;;;;;;13.35;2.83;;;17.10;99.90;;;;;;1906079;74;21554;-76
2022/04/13 08:51:39;;;;;;;14.78;2.70;;;17.20;99.90;;;;;;1809535;78;21088;-76
2022/04/13 08:54:33;;;;;;;15.85;3.20;;;17.40;99.90;;;;;;1809227;79;21220;-75
2022/04/13 09:00:09;;;;;;;11.88;3.00;;;17.60;99.90;;;;;;1948470;72;22224;-75
2022/04/13 09:03:26;;;;;;;9.50;2.98;;;17.60;99.90;;;;;;1903797;74;21090;-75
2022/04/13 09:06:39;;;;;;;13.85;2.60;;;17.70;99.90;;;;;;1894919;75;21122;-75
2022/04/13 09:09:34;;;;;;;9.33;2.50;;;17.80;99.90;;;;;;1896651;75;21055;-75
2022/04/13 09:15:12;;;;;;;7.25;2.05;;;17.90;99.90;;;;;;1943269;72;22129;-75
2022/04/13 09:18:24;;;;;;;8.48;1.70;;;17.90;99.90;;;;;;1903829;75;21055;-75
2022/04/13 09:21:35;;;;;;;7.42;1.80;;;17.70;99.90;;;;;;1898746;75;21084;-75
2022/04/13 09:24:28;;;;;;;8.63;1.50;;;17.60;99.90;;;;;;1886708;75;21067;-75
2022/04/13 09:30:18;;;;;;;3.55;1.40;;;17.40;99.90;;;;;;1953612;72;22241;-75
2022/04/13 09:36:14;;;;;;;5.45;1.40;;;17.30;99.90;;;;;;1961045;72;20111;-75
2022/04/13 09:39:25;;;;;;;7.65;2.33;;;17.40;99.90;;;;;;1943518;73;21067;-75
2022/04/13 09:42:37;;;;;;;6.25;1.70;;;17.40;99.90;;;;;;1922174;73;21095;-76
2022/04/13 09:45:34;;;;;;;5.85;1.50;;;17.40;99.90;;;;;;1940460;73;21317;-75
2022/04/13 09:48:44;;;;;;;9.65;1.90;;;17.30;99.90;;;;;;1941677;73;21534;-75
2022/04/13 09:51:38;;;;;;;7.62;1.55;;;17.30;99.90;;;;;;1926763;73;21068;-76
2022/04/13 09:54:29;;;;;;;5.47;1.70;;;17.30;99.90;;;;;;1917534;75;21228;-75
2022/04/13 09:57:25;;;;;;;5.40;1.80;;;17.40;99.90;;;;;;1931955;73;21183;-76
2022/04/13 10:00:18;;;;;;;4.87;1.60;;;17.40;99.90;;;;;;1923550;73;21084;-77
2022/04/13 10:03:14;;;;;;;11.00;2.20;;;17.50;99.90;;;;;;1928695;73;21599;-75
2022/04/13 10:06:08;;;;;;;8.63;2.52;;;17.50;99.90;;;;;;1917331;75;21099;-75
2022/04/13 10:09:05;;;;;;;8.98;1.50;;;17.60;99.90;;;;;;1925100;73;21092;-75
2022/04/13 10:14:46;;;;;;;7.42;1.42;;;17.50;99.90;;;;;;1943114;72;22126;-75
2022/04/13 10:18:00;;;;;;;4.50;1.37;;;17.50;99.90;;;;;;1918477;73;21066;-74
2022/04/13 10:21:11;;;;;;;6.12;1.25;;;17.70;99.90;;;;;;1917360;75;21050;-75
2022/04/13 10:24:04;;;;;;;3.20;1.00;;;17.60;99.90;;;;;;1934384;73;21125;-75
2022/04/13 10:29:54;;;;;;;4.78;1.25;;;17.80;99.90;;;;;;1955200;72;22224;-75
2022/04/13 10:33:06;;;;;;;2.90;1.20;;;17.90;99.90;;;;;;1885383;75;21138;-75
2022/04/13 10:36:17;;;;;;;5.37;1.45;;;17.70;99.90;;;;;;1884490;75;21185;-76
2022/04/13 10:39:08;;;;;;;7.97;1.50;;;17.80;99.90;;;;;;1915365;75;21071;-75
2022/04/13 10:42:21;;;;;;;6.37;1.35;;;17.90;99.90;;;;;;1908587;75;21152;-78
2022/04/13 10:45:15;;;;;;;4.90;1.30;;;18.00;99.90;;;;;;1906630;75;21207;-76
2022/04/13 10:50:50;;;;;;;5.00;1.30;;;18.10;99.90;;;;;;1975702;72;22212;-76
2022/04/13 10:54:03;;;;;;;6.08;1.57;;;18.10;99.90;;;;;;1941553;73;21051;-75
2022/04/13 10:57:14;;;;;;;5.75;1.50;;;18.10;99.90;;;;;;1928175;73;21087;-76
2022/04/13 11:00:10;;;;;;;5.37;1.45;;;18.30;99.90;;;;;;1917666;75;21353;-76
2022/04/13 11:03:25;;;;;;;6.50;1.62;;;18.30;99.90;;;;;;1926487;73;21516;-75
2022/04/13 11:06:15;;;;;;;4.28;1.22;;;18.40;99.90;;;;;;1923372;73;21162;-75
2022/04/13 11:09:11;;;;;;;4.62;1.27;;;18.40;99.90;;;;;;1921500;73;21107;-75
2022/04/13 11:12:03;;;;;;;3.45;1.40;;;18.50;99.90;;;;;;1917494;75;21059;-75
2022/04/13 11:14:56;;;;;;;3.77;1.20;;;18.50;99.90;;;;;;1917623;75;21059;-76
2022/04/13 11:17:51;;;;;;;5.33;1.20;;;18.80;99.90;;;;;;1927606;73;21059;-75
2022/04/13 11:21:05;;;;;;;5.45;1.40;;;18.70;99.90;;;;;;1927770;73;21055;-75
2022/04/13 11:23:56;;;;;;;6.58;1.45;;;18.80;99.90;;;;;;1917622;75;21151;-75
2022/04/13 11:26:57;;;;;;;5.00;1.30;;;18.90;99.90;;;;;;1917359;75;21490;-75
2022/04/13 11:32:39;;;;;;;4.67;1.25;;;18.80;99.90;;;;;;1944515;72;22182;-75
2022/04/13 11:35:55;;;;;;;8.58;1.75;;;19.00;99.90;;;;;;1907044;75;21344;-76
2022/04/13 11:39:05;;;;;;;5.80;1.30;;;18.90;99.90;;;;;;1914708;75;21051;-76
2022/04/13 11:41:57;;;;;;;4.25;1.30;;;18.90;99.90;;;;;;1906703;75;21055;-75
2022/04/13 11:45:10;;;;;;;5.50;1.45;;;19.00;99.90;;;;;;1906690;75;21052;-75
2022/04/13 11:50:45;;;;;;;5.92;1.47;;;19.30;99.90;;;;;;1962748;72;22221;-75
2022/04/13 11:53:56;;;;;;;6.90;1.80;;;19.30;99.90;;;;;;1929369;73;21112;-77
2022/04/13 11:57:07;;;;;;;5.80;1.60;;;19.50;99.90;;;;;;1917478;75;21599;-75
2022/04/13 11:59:59;;;;;;;7.22;2.02;;;19.50;99.90;;;;;;1923435;73;21115;-76
2022/04/13 12:05:52;;;;;;;7.55;1.50;;;19.50;99.90;;;;;;1975935;72;22158;-77
2022/04/13 12:09:03;;;;;;;6.78;1.72;;;19.60;99.90;;;;;;1937963;73;21168;-77
2022/04/13 12:14:58;;;;;;;7.10;2.17;;;19.70;99.90;;;;;;1955907;72;22095;-77
2022/04/13 12:21:10;;;;;;;4.90;1.70;;;19.80;99.90;;;;;;1948249;72;22556;-75
2022/04/13 12:27:04;;;;;;;7.37;1.80;;;19.90;99.90;;;;;;1952433;72;22197;-75
2022/04/13 12:30:17;;;;;;;6.55;1.60;;;20.00;99.90;;;;;;1929023;73;21485;-75
2022/04/13 12:33:28;;;;;;;6.37;1.72;;;20.00;99.90;;;;;;1917586;75;21093;-75
2022/04/13 12:36:20;;;;;;;9.23;1.62;;;20.10;99.90;;;;;;1924169;73;21100;-75
2022/04/13 12:52:59;;;;;;;7.35;1.62;;;20.10;99.90;;;;;;1953369;72;22161;-78
2022/04/13 12:56:12;;;;;;;6.58;1.70;;;20.20;99.90;;;;;;1928004;73;21088;-75
2022/04/13 12:59:24;;;;;;;5.25;1.60;;;20.10;99.90;;;;;;1918060;73;21078;-76
2022/04/13 13:02:21;;;;;;;9.98;1.87;;;20.20;99.90;;;;;;1932893;73;21114;-76
2022/04/13 13:05:32;;;;;;;3.65;1.10;;;20.30;99.90;;;;;;1917436;75;21086;-77
2022/04/13 13:11:05;;;;;;;5.22;1.10;;;20.40;99.90;;;;;;1972777;72;22205;-76
2022/04/13 13:16:54;;;;;;;5.37;1.25;;;20.40;99.90;;;;;;1954678;72;22245;-77
2022/04/13 13:20:11;;;;;;;4.00;1.67;;;20.50;99.90;;;;;;1904681;74;21109;-75
2022/04/13 13:26:05;;;;;;;5.78;1.40;;;20.80;99.90;;;;;;1942351;72;22158;-75
2022/04/13 13:31:54;;;;;;;4.70;1.50;;;21.10;99.90;;;;;;1952267;72;22241;-75
2022/04/13 13:35:07;;;;;;;6.65;1.42;;;21.00;99.90;;;;;;1939653;73;21159;-76
2022/04/13 13:38:22;;;;;;;7.35;1.55;;;20.90;99.90;;;;;;1932534;73;21039;-76
2022/04/13 13:41:16;;;;;;;5.55;1.50;;;20.90;99.90;;;;;;1933426;73;21066;-75
2022/04/13 13:44:26;;;;;;;6.58;1.50;;;21.00;99.90;;;;;;1941320;73;21164;-76
2022/04/13 13:49:58;;;;;;;6.03;1.45;;;21.10;99.90;;;;;;1948945;72;22197;-75
2022/04/13 13:55:48;;;;;;;6.05;1.77;;;21.20;99.90;;;;;;1957466;72;22260;-75
2022/04/13 13:58:59;;;;;;;7.08;1.20;;;21.30;99.90;;;;;;1942668;73;21159;-76
2022/04/13 14:02:10;;;;;;;5.28;1.50;;;21.30;99.90;;;;;;1933702;73;21085;-75
2022/04/13 14:05:05;;;;;;;4.10;1.40;;;21.40;99.90;;;;;;1917432;75;21103;-75
2022/04/13 14:10:56;;;;;;;4.47;1.52;;;21.90;99.90;;;;;;1957735;72;22154;-75
2022/04/13 14:14:06;;;;;;;4.53;1.40;;;22.20;99.90;;;;;;1917595;74;21197;-76
2022/04/13 14:17:16;;;;;;;8.88;1.77;;;22.30;99.70;;;;;;1884349;76;21051;-75
2022/04/13 14:22:51;;;;;;;6.87;1.40;;;22.70;98.50;;;;;;1933201;72;22095;-75
2022/04/13 14:26:02;;;;;;;4.75;1.15;;;22.80;98.10;;;;;;1888714;74;21059;-76
2022/04/13 14:29:12;;;;;;;5.92;1.20;;;22.80;97.50;;;;;;1906710;75;21115;-76
2022/04/13 14:34:58;;;;;;;6.37;1.72;;;22.90;97.00;;;;;;1947136;72;22193;-75
2022/04/13 14:40:53;;;;;;;4.75;1.50;;;23.30;96.10;;;;;;1939179;72;27985;-75
2022/04/13 14:44:05;;;;;;;3.85;1.60;;;23.40;95.50;;;;;;1895289;74;21055;-75
2022/04/13 14:49:55;;;;;;;4.92;1.52;;;23.50;94.40;;;;;;1943803;72;22361;-75
2022/04/13 14:55:52;;;;;;;5.75;1.60;;;23.50;93.60;;;;;;1942429;72;28062;-76
2022/04/13 15:01:42;;;;;;;7.33;1.65;;;23.70;93.30;;;;;;1957836;72;22230;-75
2022/04/13 15:04:52;;;;;;;5.75;1.17;;;23.90;92.50;;;;;;1914838;75;21043;-75
2022/04/13 15:08:03;;;;;;;7.17;1.30;;;23.90;91.90;;;;;;1917441;75;21102;-75
2022/04/13 15:10:55;;;;;;;3.25;1.50;;;23.70;91.90;;;;;;1907881;75;21573;-75
2022/04/13 15:14:06;;;;;;;4.33;1.37;;;23.40;91.70;;;;;;1912077;75;21062;-75
2022/04/13 15:16:58;;;;;;;5.95;1.62;;;23.60;91.40;;;;;;1902260;75;21121;-76
2022/04/13 15:19:49;;;;;;;6.20;1.60;;;23.80;91.10;;;;;;1896206;75;21110;-75
2022/04/13 15:25:20;;;;;;;2.85;1.40;;;24.30;90.00;;;;;;1942113;72;22106;-76
2022/04/13 15:28:32;;;;;;;6.62;1.27;;;24.60;89.70;;;;;;1885258;75;21059;-75
2022/04/13 15:31:42;;;;;;;3.60;1.17;;;24.00;87.40;;;;;;1903525;75;21051;-75
2022/04/13 15:34:34;;;;;;;6.97;1.32;;;24.20;87.60;;;;;;1896078;75;21188;-75
2022/04/13 15:40:23;;;;;;;3.83;1.10;;;24.50;85.20;;;;;;1952260;72;22235;-75
2022/04/13 15:43:33;;;;;;;7.72;1.70;;;24.50;84.20;;;;;;1914273;75;21027;-76
2022/04/13 15:46:44;;;;;;;4.33;1.45;;;24.40;83.70;;;;;;1913957;75;21078;-76
2022/04/13 15:49:35;;;;;;;4.05;1.47;;;24.30;82.90;;;;;;1920542;74;21107;-76
2022/04/13 15:55:29;;;;;;;4.85;1.67;;;24.30;79.70;;;;;;1957607;72;22108;-76
2022/04/13 15:58:41;;;;;;;3.67;1.10;;;24.30;78.40;;;;;;1917070;75;21153;-76
2022/04/13 16:01:54;;;;;;;4.12;1.25;;;24.60;77.70;;;;;;1905721;75;21136;-75
2022/04/13 16:04:46;;;;;;;3.42;1.07;;;24.60;76.80;;;;;;1913070;75;21143;-76
2022/04/13 16:07:56;;;;;;;4.90;1.20;;;24.50;75.80;;;;;;1895952;75;21094;-75
2022/04/13 16:10:48;;;;;;;3.90;1.20;;;24.40;76.70;;;;;;1896235;75;21092;-75
2022/04/13 16:13:40;;;;;;;3.45;1.10;;;24.50;75.50;;;;;;1905299;75;21059;-76
2022/04/13 16:16:32;;;;;;;5.30;1.25;;;24.50;75.30;;;;;;1895811;75;21501;-76
2022/04/13 16:22:02;;;;;;;3.70;1.07;;;24.10;76.50;;;;;;1954406;72;22123;-75
2022/04/13 16:27:51;;;;;;;3.05;1.20;;;24.10;75.70;;;;;;1947148;72;22314;-76
2022/04/13 16:31:02;;;;;;;7.25;1.40;;;24.30;75.90;;;;;;1906282;75;21058;-76
2022/04/13 16:34:14;;;;;;;4.67;1.40;;;24.00;75.70;;;;;;1906454;75;21607;-76
2022/04/13 16:37:06;;;;;;;5.47;1.40;;;23.90;76.70;;;;;;1870481;76;21082;-75
2022/04/13 16:40:17;;;;;;;4.97;1.10;;;24.00;77.30;;;;;;1906493;75;21099;-75
2022/04/13 16:45:49;;;;;;;4.05;1.35;;;23.20;80.70;;;;;;1943082;72;22130;-75
2022/04/13 16:51:40;;;;;;;4.67;1.30;;;22.50;82.90;;;;;;1949562;72;22236;-75
2022/04/13 16:54:50;;;;;;;6.33;1.80;;;22.40;83.90;;;;;;1906924;75;21565;-77
2022/04/13 16:58:01;;;;;;;5.83;1.20;;;22.10;85.20;;;;;;1906810;75;21089;-76
2022/04/13 17:00:53;;;;;;;3.92;1.50;;;21.80;86.40;;;;;;1906958;75;21055;-76
2022/04/13 17:06:53;;;;;;;5.83;1.57;;;21.40;88.90;;;;;;1963922;72;22150;-75
2022/04/13 17:12:46;;;;;;;7.33;1.55;;;21.00;90.00;;;;;;1929946;72;22631;-75
2022/04/13 17:16:03;;;;;;;3.67;1.65;;;21.00;90.20;;;;;;1884493;75;21101;-75
2022/04/13 17:19:13;;;;;;;5.42;1.50;;;20.90;90.70;;;;;;1906357;75;21051;-75
2022/04/13 17:24:45;;;;;;;5.62;1.40;;;20.80;91.20;;;;;;1958252;72;22229;-75
2022/04/13 17:27:55;;;;;;;5.92;1.82;;;20.60;91.60;;;;;;1917427;75;21596;-75
2022/04/13 17:31:06;;;;;;;2.27;1.07;;;20.60;91.70;;;;;;1917613;75;21054;-75
2022/04/13 17:33:58;;;;;;;4.80;1.40;;;20.50;91.90;;;;;;1917563;75;21102;-77
2022/04/13 17:37:09;;;;;;;4.62;1.40;;;20.30;92.30;;;;;;1917756;75;21102;-75
2022/04/13 17:40:01;;;;;;;5.17;1.55;;;20.20;92.80;;;;;;1917562;75;21055;-75
2022/04/13 17:42:53;;;;;;;4.70;1.10;;;20.10;93.10;;;;;;1917521;75;21083;-75
2022/04/13 17:45:48;;;;;;;4.40;1.17;;;20.00;92.90;;;;;;1917578;75;21098;-76
2022/04/13 17:48:41;;;;;;;5.00;1.35;;;19.90;93.20;;;;;;1916434;75;21113;-76
2022/04/13 17:51:33;;;;;;;4.78;1.45;;;19.80;94.00;;;;;;1939069;73;21142;-76
2022/04/13 17:54:26;;;;;;;7.62;1.60;;;19.80;93.80;;;;;;1937681;73;21124;-76
2022/04/13 17:57:18;;;;;;;4.45;1.10;;;19.80;93.90;;;;;;1917529;73;21102;-76
2022/04/13 18:05:35;;;;;;;3.83;1.40;;;19.50;94.60;;;;;;1939511;72;22232;-76
2022/04/13 18:11:24;;;;;;;6.12;1.67;;;19.50;94.60;;;;;;1944238;72;22133;-75
2022/04/13 18:14:35;;;;;;;7.05;1.55;;;19.40;94.50;;;;;;1929673;73;21562;-75
2022/04/13 18:17:46;;;;;;;5.20;1.20;;;19.40;94.30;;;;;;1918023;73;21134;-75
2022/04/13 18:20:38;;;;;;;3.67;1.32;;;19.40;94.20;;;;;;1918557;73;21090;-75
2022/04/13 18:23:48;;;;;;;4.80;1.57;;;19.40;93.70;;;;;;1940572;73;21137;-76
2022/04/13 18:29:21;;;;;;;7.55;1.50;;;19.40;93.90;;;;;;1932300;72;22307;-76
2022/04/13 18:32:33;;;;;;;3.58;1.10;;;19.30;94.00;;;;;;1906878;75;21245;-75
2022/04/13 18:35:43;;;;;;;4.78;1.40;;;19.30;93.90;;;;;;1885223;75;21098;-76
2022/04/13 18:38:35;;;;;;;4.78;1.17;;;19.20;93.80;;;;;;1911305;75;21068;-76
2022/04/13 18:41:45;;;;;;;3.10;1.12;;;19.30;94.00;;;;;;1883948;76;21463;-75
2022/04/13 18:47:16;;;;;;;4.42;1.27;;;19.30;93.60;;;;;;1952824;72;22141;-75
2022/04/13 18:53:09;;;;;;;3.83;1.12;;;19.20;93.80;;;;;;1956106;72;22767;-75
2022/04/13 18:56:19;;;;;;;3.58;1.20;;;19.20;93.90;;;;;;1885203;75;21015;-76
2022/04/13 18:59:30;;;;;;;3.35;1.20;;;19.10;94.00;;;;;;1915704;75;21106;-75
2022/04/13 19:02:22;;;;;;;5.60;2.08;;;19.10;93.80;;;;;;1896265;75;21158;-76
2022/04/13 19:05:32;;;;;;;3.27;1.45;;;19.20;93.50;;;;;;1902688;74;21211;-76
2022/04/13 19:11:13;;;;;;;5.47;1.55;;;19.10;93.70;;;;;;1947373;72;22190;-76
2022/04/13 19:14:25;;;;;;;4.85;1.45;;;19.00;93.70;;;;;;1905592;75;21532;-75
2022/04/13 19:17:35;;;;;;;7.28;1.90;;;19.20;93.60;;;;;;1895308;75;21051;-75
2022/04/13 19:23:15;;;;;;;5.53;2.05;;;19.00;93.70;;;;;;1960222;72;22139;-75
2022/04/13 19:26:26;;;;;;;7.25;2.10;;;19.00;93.80;;;;;;1917338;75;21048;-76